createdAt,value
2023-01-13T00:01:58.833Z,68.28
2023-01-13T00:04:25.559Z,68.49
2023-01-13T00:06:52.540Z,69.04
2023-01-13T00:09:19.169Z,69.34
2023-01-13T00:11:49.026Z,69.03
2023-01-13T00:14:19.635Z,69.58
2023-01-13T00:16:46.395Z,69.73
2023-01-13T00:19:20.036Z,69.84
2023-01-13T00:21:52.217Z,69.97
2023-01-13T00:24:21.731Z,70.08
2023-01-13T00:26:48.510Z,69.75
2023-01-13T00:29:17.189Z,70.08
2023-01-13T00:31:50.205Z,70.23
2023-01-13T00:34:19.361Z,70.40
2023-01-13T00:36:46.235Z,70.49
2023-01-13T00:39:20.669Z,70.60
2023-01-13T00:42:05.972Z,70.31
2023-01-13T00:44:35.005Z,70.48
2023-01-13T00:47:02.971Z,70.90
2023-01-13T00:49:30.083Z,70.22
2023-01-13T00:51:56.708Z,70.18
2023-01-13T00:54:28.031Z,70.09
2023-01-13T00:57:04.865Z,69.90
2023-01-13T00:59:32.052Z,69.99
2023-01-13T01:02:02.241Z,69.13
2023-01-13T01:04:29.147Z,68.71
2023-01-13T01:07:00.715Z,69.37
2023-01-13T01:09:35.939Z,69.14
2023-01-13T01:12:02.883Z,69.92
2023-01-13T01:14:29.513Z,69.71
2023-01-13T01:16:57.853Z,70.14
2023-01-13T01:19:24.737Z,69.99
2023-01-13T01:21:51.387Z,69.92
2023-01-13T01:24:18.056Z,69.78
2023-01-13T01:26:44.742Z,69.56
2023-01-13T01:29:17.327Z,69.18
2023-01-13T01:31:58.021Z,69.25
2023-01-13T01:34:24.663Z,68.89
2023-01-13T01:36:51.222Z,69.34
2023-01-13T01:39:17.919Z,69.00
2023-01-13T01:42:04.454Z,69.49
2023-01-13T01:44:43.151Z,70.05
2023-01-13T01:47:14.999Z,70.07
2023-01-13T01:49:49.341Z,69.99
2023-01-13T01:52:35.102Z,70.74
2023-01-13T01:55:13.448Z,70.51
2023-01-13T01:57:47.086Z,70.53
2023-01-13T02:00:16.925Z,70.25
2023-01-13T02:02:46.481Z,69.92
2023-01-13T02:05:15.400Z,70.10
2023-01-13T02:07:52.481Z,70.09
2023-01-13T02:10:24.387Z,69.57
2023-01-13T02:12:52.716Z,69.99
2023-01-13T02:15:54.335Z,70.58
2023-01-13T02:18:55.418Z,70.82
2023-01-13T02:22:06.249Z,71.46
2023-01-13T02:25:05.443Z,70.50
2023-01-13T02:27:58.220Z,69.77
2023-01-13T02:30:49.439Z,69.77
2023-01-13T02:33:34.510Z,69.37
2023-01-13T02:36:39.804Z,69.67
2023-01-13T02:39:19.462Z,70.20
2023-01-13T02:42:23.653Z,70.02
2023-01-13T02:45:13.581Z,70.70
2023-01-13T02:47:44.656Z,70.53
2023-01-13T02:50:17.597Z,71.15
2023-01-13T02:52:50.917Z,71.42
2023-01-13T02:55:23.630Z,71.68
2023-01-13T02:57:53.157Z,71.49
2023-01-13T03:00:20.842Z,71.74
2023-01-13T03:02:49.265Z,72.09
2023-01-13T03:05:17.427Z,72.32
2023-01-13T03:07:44.041Z,72.01
2023-01-13T03:10:38.379Z,72.25
2023-01-13T03:13:47.211Z,71.76
2023-01-13T03:16:44.984Z,71.50
2023-01-13T03:19:25.123Z,71.13
2023-01-13T03:22:22.370Z,70.92
2023-01-13T03:24:55.443Z,70.79
2023-01-13T03:27:43.729Z,69.69
2023-01-13T03:30:37.261Z,70.17
2023-01-13T03:33:15.557Z,70.57
2023-01-13T03:35:50.428Z,70.67
2023-01-13T03:38:39.505Z,70.44
2023-01-13T03:41:22.198Z,69.59
2023-01-13T03:44:12.379Z,70.02
2023-01-13T03:46:57.063Z,70.39
2023-01-13T03:49:35.867Z,70.85
2023-01-13T03:52:07.503Z,70.18
2023-01-13T03:54:44.139Z,70.12
2023-01-13T03:57:19.190Z,69.56
2023-01-13T03:59:53.022Z,68.86
2023-01-13T04:02:51.529Z,69.16
2023-01-13T04:05:19.432Z,68.76
2023-01-13T04:08:09.656Z,68.99
2023-01-13T04:10:58.962Z,69.50
2023-01-13T04:13:30.247Z,69.89
2023-01-13T04:15:57.066Z,69.60
2023-01-13T04:18:30.383Z,70.08
2023-01-13T04:21:00.428Z,70.11
2023-01-13T04:23:28.217Z,70.30
2023-01-13T04:26:05.026Z,71.17
2023-01-13T04:28:38.230Z,70.96
2023-01-13T04:31:11.235Z,71.43
2023-01-13T04:33:37.997Z,71.40
2023-01-13T04:36:05.269Z,71.15
2023-01-13T04:38:38.437Z,71.76
2023-01-13T04:41:12.549Z,71.89
2023-01-13T04:43:41.347Z,72.00
2023-01-13T04:46:14.056Z,71.88
2023-01-13T04:48:42.053Z,72.29
2023-01-13T04:51:10.989Z,72.07
2023-01-13T04:53:37.620Z,72.18
2023-01-13T04:56:04.322Z,72.31
2023-01-13T04:58:31.037Z,71.96
2023-01-13T05:00:57.854Z,71.70
2023-01-13T05:06:16.611Z,71.18
2023-01-13T05:08:46.405Z,71.61
2023-01-13T05:11:33.869Z,71.17
2023-01-13T05:14:22.022Z,71.08
2023-01-13T05:17:01.864Z,70.82
2023-01-13T05:19:36.395Z,71.03
2023-01-13T05:22:29.174Z,71.56
2023-01-13T05:25:14.433Z,71.81
2023-01-13T05:27:41.462Z,71.41
2023-01-13T05:30:09.837Z,71.73
2023-01-13T05:32:37.921Z,71.76
2023-01-13T05:35:04.702Z,71.11
2023-01-13T05:37:36.438Z,70.82
2023-01-13T05:40:24.845Z,70.70
2023-01-13T05:43:21.461Z,70.95
2023-01-13T05:46:03.312Z,70.96
2023-01-13T05:48:37.457Z,71.09
2023-01-13T05:51:07.644Z,70.77
2023-01-13T05:53:36.545Z,70.57
2023-01-13T05:56:13.285Z,70.95
2023-01-13T05:58:40.378Z,70.50
2023-01-13T06:01:08.889Z,70.68
2023-01-13T06:03:36.302Z,71.01
2023-01-13T06:06:05.232Z,71.08
2023-01-13T06:08:38.670Z,71.30
2023-01-13T06:11:07.716Z,71.16
2023-01-13T06:13:34.573Z,71.06
2023-01-13T06:16:01.417Z,71.30
2023-01-13T06:18:29.181Z,71.07
2023-01-13T06:20:56.432Z,71.91
2023-01-13T06:23:23.442Z,71.49
2023-01-13T06:26:15.622Z,71.94
2023-01-13T06:28:42.266Z,71.71
2023-01-13T06:31:10.429Z,72.16
2023-01-13T06:33:49.498Z,71.91
2023-01-13T06:36:45.081Z,72.46
2023-01-13T06:39:19.058Z,71.83
2023-01-13T06:42:09.573Z,71.80
2023-01-13T06:44:36.342Z,71.35
2023-01-13T06:47:03.735Z,71.82
2023-01-13T06:49:33.351Z,71.55
2023-01-13T06:52:01.060Z,71.96
2023-01-13T06:54:27.899Z,71.38
2023-01-13T06:56:55.317Z,71.74
2023-01-13T06:59:22.823Z,70.83
2023-01-13T07:01:49.722Z,71.21
2023-01-13T07:04:30.032Z,71.22
2023-01-13T07:06:56.967Z,70.81
2023-01-13T07:09:23.597Z,70.70
2023-01-13T07:11:52.121Z,70.62
2023-01-13T07:14:42.762Z,70.84
2023-01-13T07:17:10.343Z,70.46
2023-01-13T07:19:37.891Z,70.57
2023-01-13T07:22:07.840Z,70.22
2023-01-13T07:24:34.512Z,70.52
2023-01-13T07:27:07.047Z,70.32
2023-01-13T07:29:45.408Z,70.37
2023-01-13T07:32:12.149Z,70.66
2023-01-13T07:34:38.885Z,70.74
2023-01-13T07:37:09.436Z,70.04
2023-01-13T07:39:36.097Z,70.09
2023-01-13T07:42:21.307Z,69.58
2023-01-13T07:44:50.093Z,70.01
2023-01-13T07:47:17.121Z,69.25
2023-01-13T07:50:01.650Z,69.41
2023-01-13T07:52:28.775Z,68.98
2023-01-13T07:54:55.417Z,68.96
2023-01-13T07:57:22.039Z,68.58
2023-01-13T07:59:48.793Z,68.28
2023-01-13T08:02:15.700Z,68.23
2023-01-13T08:04:42.453Z,68.59
2023-01-13T08:07:09.031Z,68.11
2023-01-13T08:09:38.011Z,68.57
2023-01-13T08:12:26.473Z,68.58
2023-01-13T08:14:54.140Z,68.25
2023-01-13T08:17:20.989Z,67.30
2023-01-13T08:19:52.627Z,67.45
2023-01-13T08:22:19.418Z,67.20
2023-01-13T08:24:46.207Z,67.52
2023-01-13T08:27:12.921Z,67.17
2023-01-13T08:29:39.498Z,67.78
2023-01-13T08:32:06.785Z,67.74
2023-01-13T08:34:33.388Z,67.83
2023-01-13T08:37:00.188Z,67.19
2023-01-13T08:39:27.086Z,66.97
2023-01-13T08:41:56.682Z,67.20
2023-01-13T08:44:25.843Z,67.34
2023-01-13T08:46:52.480Z,67.22
2023-01-13T08:49:19.126Z,67.33
2023-01-13T08:51:46.183Z,67.48
2023-01-13T08:54:14.213Z,67.22
2023-01-13T08:56:42.801Z,67.17
2023-01-13T08:59:18.902Z,67.53
2023-01-13T09:01:46.277Z,67.55
2023-01-13T09:04:21.616Z,67.10
2023-01-13T09:06:49.267Z,67.48
2023-01-13T09:09:16.042Z,67.72
2023-01-13T09:12:05.904Z,67.16
2023-01-13T09:14:34.690Z,66.93
2023-01-13T09:17:04.569Z,67.23
2023-01-13T09:19:50.689Z,66.49
2023-01-13T09:22:19.377Z,66.12
2023-01-13T09:24:46.543Z,66.00
2023-01-13T09:27:15.188Z,66.51
2023-01-13T09:29:41.923Z,66.57
2023-01-13T09:32:13.207Z,65.97
2023-01-13T09:34:58.400Z,66.43
2023-01-13T09:37:25.321Z,66.59
2023-01-13T09:39:52.009Z,66.25
2023-01-13T09:42:40.435Z,66.02
2023-01-13T09:45:17.977Z,66.45
2023-01-13T09:48:15.445Z,65.46
2023-01-13T09:50:48.043Z,65.60
2023-01-13T09:53:24.603Z,65.37
2023-01-13T09:55:51.517Z,65.24
2023-01-13T09:58:19.502Z,65.28
2023-01-13T10:00:51.446Z,65.10
2023-01-13T10:03:31.868Z,64.86
2023-01-13T10:06:07.414Z,65.60
2023-01-13T10:08:43.227Z,65.92
2023-01-13T10:11:40.625Z,65.55
2023-01-13T10:14:16.881Z,64.72
2023-01-13T10:17:19.961Z,64.09
2023-01-13T10:20:30.694Z,63.64
2023-01-13T10:23:09.058Z,63.11
2023-01-13T10:25:44.731Z,63.71
2023-01-13T10:28:14.175Z,64.06
2023-01-13T10:30:52.561Z,64.53
2023-01-13T10:33:30.325Z,64.18
2023-01-13T10:36:14.147Z,63.01
2023-01-13T10:38:50.909Z,63.29
2023-01-13T10:41:26.765Z,62.97
2023-01-13T10:44:07.722Z,63.57
2023-01-13T10:46:55.530Z,63.30
2023-01-13T10:49:40.425Z,63.18
2023-01-13T10:52:29.604Z,62.88
2023-01-13T10:54:57.416Z,63.03
2023-01-13T10:57:37.738Z,62.77
2023-01-13T11:00:26.193Z,63.41
2023-01-13T11:03:31.105Z,62.97
2023-01-13T11:06:09.008Z,62.96
2023-01-13T11:08:53.102Z,63.98
2023-01-13T11:11:42.192Z,64.16
2023-01-13T11:14:33.491Z,64.02
2023-01-13T11:17:09.709Z,64.68
2023-01-13T11:19:47.506Z,64.70
2023-01-13T11:22:21.759Z,64.71
2023-01-13T11:25:00.783Z,64.85
2023-01-13T11:27:45.162Z,64.68
2023-01-13T11:30:22.238Z,64.62
2023-01-13T11:33:15.328Z,64.38
2023-01-13T11:36:02.878Z,64.03
2023-01-13T11:39:12.090Z,64.82
2023-01-13T11:41:44.137Z,64.63
2023-01-13T11:44:15.287Z,64.71
2023-01-13T11:46:43.869Z,64.58
2023-01-13T11:49:22.387Z,63.75
2023-01-13T11:52:06.662Z,64.14
2023-01-13T11:54:54.539Z,64.44
2023-01-13T11:57:46.974Z,64.86
2023-01-13T12:00:32.526Z,63.65
2023-01-13T12:03:15.712Z,63.97
2023-01-13T12:05:42.433Z,63.62
2023-01-13T12:08:53.590Z,63.65
2023-01-13T12:11:34.548Z,63.52
2023-01-13T12:14:07.720Z,64.00
2023-01-13T12:16:36.511Z,64.36
2023-01-13T12:19:39.289Z,64.30
2023-01-13T12:22:16.437Z,64.10
2023-01-13T12:25:05.080Z,63.84
2023-01-13T12:27:52.944Z,63.98
2023-01-13T12:30:40.856Z,63.78
2023-01-13T12:33:24.797Z,63.69
2023-01-13T12:36:19.668Z,64.19
2023-01-13T12:38:51.846Z,63.31
2023-01-13T12:42:05.901Z,62.34
2023-01-13T12:44:40.729Z,62.84
2023-01-13T12:47:34.688Z,63.64
2023-01-13T12:50:28.368Z,62.37
2023-01-13T12:53:01.073Z,61.73
2023-01-13T12:55:33.797Z,61.09
2023-01-13T12:58:06.319Z,60.62
2023-01-13T13:00:54.992Z,59.99
2023-01-13T13:03:33.524Z,60.81
2023-01-13T13:06:20.834Z,60.59
2023-01-13T13:08:57.163Z,60.05
2023-01-13T13:12:01.935Z,59.92
2023-01-13T13:14:37.741Z,60.47
2023-01-13T13:17:28.207Z,60.14
2023-01-13T13:19:59.935Z,59.47
2023-01-13T13:22:34.551Z,60.08
2023-01-13T13:25:04.145Z,60.12
2023-01-13T13:27:33.735Z,59.16
2023-01-13T13:30:17.293Z,59.57
2023-01-13T13:32:56.489Z,57.15
2023-01-13T13:36:02.670Z,56.71
2023-01-13T13:39:16.048Z,55.74
2023-01-13T13:42:05.794Z,54.00
2023-01-13T13:45:08.124Z,53.59
2023-01-13T13:47:37.190Z,54.09
2023-01-13T13:50:23.870Z,53.12
2023-01-13T13:53:06.399Z,53.21
2023-01-13T13:55:42.972Z,53.84
2023-01-13T13:58:18.863Z,54.32
2023-01-13T14:00:50.457Z,54.62
2023-01-13T14:03:30.482Z,54.45
2023-01-13T14:06:00.976Z,54.45
2023-01-13T14:08:29.959Z,56.17
2023-01-13T14:10:57.013Z,55.68
2023-01-13T14:13:37.322Z,56.06
2023-01-13T14:16:07.619Z,56.81
2023-01-13T14:18:46.121Z,57.49
2023-01-13T14:21:12.732Z,58.20
2023-01-13T14:23:42.510Z,58.60
2023-01-13T14:26:17.337Z,59.10
2023-01-13T14:28:52.240Z,59.78
2023-01-13T14:31:23.506Z,59.37
2023-01-13T14:34:32.659Z,59.74
2023-01-13T14:37:09.586Z,59.68
2023-01-13T14:39:44.150Z,60.08
2023-01-13T14:42:16.543Z,60.08
2023-01-13T14:44:56.584Z,60.44
2023-01-13T14:47:29.774Z,60.54
2023-01-13T14:50:16.830Z,60.34
2023-01-13T14:52:50.298Z,60.60
2023-01-13T14:55:41.841Z,60.62
2023-01-13T14:58:28.751Z,60.65
2023-01-13T15:01:41.658Z,59.51
2023-01-13T15:04:43.357Z,60.63
2023-01-13T15:07:24.883Z,59.51
2023-01-13T15:09:55.635Z,57.92
2023-01-13T15:12:35.781Z,57.86
2023-01-13T15:15:21.897Z,56.52
2023-01-13T15:17:48.610Z,55.56
2023-01-13T15:20:21.219Z,55.05
2023-01-13T15:22:48.543Z,55.42
2023-01-13T15:25:15.619Z,55.74
2023-01-13T15:27:51.037Z,56.66
2023-01-13T15:30:28.774Z,56.66
2023-01-13T15:32:57.372Z,57.08
2023-01-13T15:35:30.533Z,57.31
2023-01-13T15:38:00.174Z,57.64
2023-01-13T15:40:32.526Z,58.08
2023-01-13T15:43:37.177Z,58.25
2023-01-13T15:46:32.554Z,58.85
2023-01-13T15:49:50.710Z,60.22
2023-01-13T15:52:26.805Z,60.38
2023-01-13T15:55:03.811Z,60.78
2023-01-13T15:57:48.617Z,60.85
2023-01-13T16:00:23.761Z,61.55
2023-01-13T16:03:00.793Z,61.96
2023-01-13T16:05:37.015Z,62.10
2023-01-13T16:08:03.897Z,63.12
2023-01-13T16:10:31.159Z,63.58
2023-01-13T16:12:59.354Z,64.11
2023-01-13T16:15:39.110Z,64.17
2023-01-13T16:18:19.887Z,64.44
2023-01-13T16:20:53.239Z,64.76
2023-01-13T16:23:23.615Z,65.10
2023-01-13T16:25:51.084Z,65.18
2023-01-13T16:28:31.736Z,65.87
2023-01-13T16:30:59.387Z,65.81
2023-01-13T16:33:34.121Z,66.12
2023-01-13T16:36:13.732Z,66.47
2023-01-13T16:38:48.326Z,67.08
2023-01-13T16:41:17.630Z,67.09
2023-01-13T16:43:47.305Z,66.87
2023-01-13T16:46:17.599Z,67.68
2023-01-13T16:48:51.031Z,67.53
2023-01-13T16:51:18.109Z,67.78
2023-01-13T16:53:45.021Z,67.83
2023-01-13T16:56:30.029Z,67.79
2023-01-13T16:59:04.825Z,67.33
2023-01-13T17:01:42.284Z,66.87
2023-01-13T17:04:20.620Z,67.47
2023-01-13T17:07:08.543Z,68.03
2023-01-13T17:09:35.569Z,68.03
2023-01-13T17:12:02.418Z,67.69
2023-01-13T17:14:29.399Z,67.97
2023-01-13T17:16:59.962Z,67.75
2023-01-13T17:19:34.752Z,68.14
2023-01-13T17:22:02.326Z,68.08
2023-01-13T17:24:31.192Z,68.07
2023-01-13T17:27:08.089Z,68.12
2023-01-13T17:29:34.795Z,67.66
2023-01-13T17:32:02.204Z,67.38
2023-01-13T17:34:41.385Z,67.41
2023-01-13T17:37:16.225Z,66.46
2023-01-13T17:39:51.255Z,66.43
2023-01-13T17:42:18.427Z,67.02
2023-01-13T17:44:45.425Z,67.24
2023-01-13T17:47:12.389Z,66.97
2023-01-13T17:49:39.116Z,66.87
2023-01-13T17:52:06.730Z,66.88
2023-01-13T17:54:33.482Z,66.57
2023-01-13T17:57:08.484Z,66.42
2023-01-13T17:59:38.506Z,67.23
2023-01-13T18:02:05.596Z,67.31
2023-01-13T18:04:32.521Z,67.94
2023-01-13T18:07:16.587Z,68.02
2023-01-13T18:09:53.553Z,67.71
2023-01-13T18:12:20.282Z,68.21
2023-01-13T18:14:46.920Z,68.49
2023-01-13T18:17:17.660Z,68.10
2023-01-13T18:20:02.756Z,68.47
2023-01-13T18:22:56.980Z,68.50
2023-01-13T18:25:43.646Z,68.73
2023-01-13T18:28:19.381Z,68.14
2023-01-13T18:30:53.912Z,68.14
2023-01-13T18:33:27.452Z,68.37
2023-01-13T18:36:02.581Z,69.03
2023-01-13T18:38:40.543Z,68.88
2023-01-13T18:41:30.644Z,69.02
2023-01-13T18:44:00.042Z,68.66
2023-01-13T18:46:38.050Z,69.30
2023-01-13T18:49:14.267Z,69.71
2023-01-13T18:51:49.463Z,69.32
2023-01-13T18:54:28.351Z,69.38
2023-01-13T18:56:57.373Z,69.10
2023-01-13T18:59:26.673Z,69.36
2023-01-13T19:02:16.895Z,68.87
2023-01-13T19:04:53.764Z,68.69
2023-01-13T19:07:29.463Z,68.87
2023-01-13T19:10:05.325Z,68.98
2023-01-13T19:12:45.923Z,69.05
2023-01-13T19:15:21.542Z,69.60
2023-01-13T19:17:57.758Z,69.58
2023-01-13T19:20:38.457Z,69.78
2023-01-13T19:23:15.596Z,69.38
2023-01-13T19:25:42.275Z,69.51
2023-01-13T19:28:14.384Z,69.53
2023-01-13T19:30:51.316Z,69.59
2023-01-13T19:33:23.701Z,68.89
2023-01-13T19:35:56.424Z,69.20
2023-01-13T19:38:31.235Z,69.08
2023-01-13T19:41:11.346Z,69.41
2023-01-13T19:43:59.959Z,69.67
2023-01-13T19:46:33.238Z,70.37
2023-01-13T19:49:08.544Z,69.68
2023-01-13T19:51:36.305Z,70.13
2023-01-13T19:54:07.243Z,70.56
2023-01-13T19:56:39.491Z,70.36
2023-01-13T19:59:56.101Z,70.35
2023-01-13T20:02:35.738Z,70.41
2023-01-13T20:05:11.774Z,70.68
2023-01-13T20:07:46.168Z,70.96
2023-01-13T20:10:13.591Z,70.52
2023-01-13T20:12:41.829Z,70.67
2023-01-13T20:15:09.861Z,70.81
2023-01-13T20:17:38.273Z,70.72
2023-01-13T20:20:05.463Z,71.11
2023-01-13T20:22:32.560Z,70.57
2023-01-13T20:25:09.562Z,70.55
2023-01-13T20:27:44.771Z,70.67
2023-01-13T20:30:19.564Z,70.59
2023-01-13T20:32:55.809Z,70.36
2023-01-13T20:35:31.541Z,70.30
2023-01-13T20:38:07.401Z,70.18
2023-01-13T20:40:39.733Z,70.63
2023-01-13T20:43:09.316Z,70.47
2023-01-13T20:45:45.515Z,70.52
2023-01-13T20:48:21.060Z,71.12
2023-01-13T20:50:58.937Z,70.91
2023-01-13T20:53:32.383Z,71.04
2023-01-13T20:56:07.415Z,71.25
2023-01-13T20:58:37.337Z,71.50
2023-01-13T21:01:05.347Z,71.03
2023-01-13T21:03:43.229Z,71.43
2023-01-13T21:06:20.525Z,70.89
2023-01-13T21:08:56.204Z,71.12
2023-01-13T21:11:43.870Z,71.42
2023-01-13T21:14:47.443Z,70.96
2023-01-13T21:17:46.096Z,71.33
2023-01-13T21:20:16.724Z,70.90
2023-01-13T21:22:55.042Z,71.46
2023-01-13T21:25:29.748Z,71.23
2023-01-13T21:28:06.298Z,71.41
2023-01-13T21:30:39.797Z,71.47
2023-01-13T21:33:15.552Z,71.73
2023-01-13T21:35:49.494Z,71.43
2023-01-13T21:38:30.318Z,72.32
2023-01-13T21:41:22.439Z,71.83
2023-01-13T21:44:10.422Z,72.25
2023-01-13T21:46:59.251Z,71.93
2023-01-13T21:49:33.437Z,71.70
2023-01-13T21:52:08.043Z,71.63
2023-01-13T21:54:59.290Z,71.41
2023-01-13T21:57:33.826Z,71.16
2023-01-13T22:00:08.633Z,71.25
2023-01-13T22:02:38.367Z,71.65
2023-01-13T22:05:18.470Z,71.83
2023-01-13T22:07:52.348Z,72.28
2023-01-13T22:10:29.942Z,72.15
2023-01-13T22:12:59.927Z,72.70
2023-01-13T22:15:29.743Z,72.67
2023-01-13T22:17:57.228Z,73.36
2023-01-13T22:20:24.374Z,73.22
2023-01-13T22:22:51.308Z,73.37
2023-01-13T22:25:29.189Z,73.46
2023-01-13T22:28:07.025Z,73.17
2023-01-13T22:30:42.730Z,72.65
2023-01-13T22:33:13.029Z,72.35
2023-01-13T22:35:40.445Z,72.23
2023-01-13T22:38:07.665Z,71.99
2023-01-13T22:40:34.343Z,71.86
2023-01-13T22:43:01.143Z,71.25
2023-01-13T22:45:38.464Z,72.14
2023-01-13T22:48:13.380Z,72.71
2023-01-13T22:50:48.345Z,72.80
2023-01-13T22:53:15.743Z,72.81
2023-01-13T22:55:44.361Z,73.50
2023-01-13T22:58:18.665Z,74.06
2023-01-13T23:00:46.915Z,74.07
2023-01-13T23:03:13.916Z,74.00
2023-01-13T23:05:45.991Z,73.64
2023-01-13T23:08:12.770Z,73.47
2023-01-13T23:10:41.115Z,73.85
2023-01-13T23:13:13.214Z,73.42
2023-01-13T23:15:39.759Z,73.42
2023-01-13T23:18:16.784Z,73.09
2023-01-13T23:20:43.693Z,73.11
2023-01-13T23:23:10.654Z,73.09
2023-01-13T23:25:38.742Z,73.36
2023-01-13T23:28:05.866Z,73.23
2023-01-13T23:30:45.125Z,73.88
2023-01-13T23:33:12.398Z,74.50
2023-01-13T23:35:39.293Z,73.77
2023-01-13T23:38:13.976Z,74.17
2023-01-13T23:40:49.298Z,74.15
2023-01-13T23:43:27.587Z,73.99
2023-01-13T23:46:12.799Z,74.50
2023-01-13T23:48:41.033Z,73.52
2023-01-13T23:51:11.639Z,73.76
2023-01-13T23:53:46.188Z,74.46
2023-01-13T23:56:21.609Z,74.79
2023-01-13T23:58:54.027Z,74.62
